Time;durP1;ratioP1;P1;durP2;ratioP2;P2;SDS_P1;SDS_P2;PMS_P1;PMS_P2;Temp;Humidity;BMP_temperature;BMP_pressure;BME280_temperature;BME280_humidity;BME280_pressure;Samples;Min_cycle;Max_cycle;Signal;HPM_P1;HPM_P2
2021/03/05 00:01:01;;;;;;;9.47;5.27;;;;;;;;;;5037810;28;20671;-71
2021/03/05 00:03:27;;;;;;;9.60;6.53;;;;;;;;;;5039458;28;20193;-71
2021/03/05 00:05:52;;;;;;;9.10;6.33;;;;;;;;;;5042932;28;20305;-70
2021/03/05 00:08:17;;;;;;;8.83;6.23;;;;;;;;;;5037761;28;20186;-70
2021/03/05 00:10:43;;;;;;;7.33;5.77;;;;;;;;;;5043175;28;20623;-71
2021/03/05 00:13:09;;;;;;;9.63;6.23;;;;;;;;;;5039299;28;20228;-73
2021/03/05 00:15:35;;;;;;;9.33;5.93;;;;;;;;;;5038628;28;20229;-72
2021/03/05 00:18:01;;;;;;;9.60;6.37;;;;;;;;;;5041051;28;20257;-72
2021/03/05 00:20:27;;;;;;;9.53;6.50;;;;;;;;;;5046675;28;20710;-72
2021/03/05 00:22:52;;;;;;;10.63;6.93;;;;;;;;;;5038773;28;20613;-72
2021/03/05 00:25:17;;;;;;;11.63;6.90;;;;;;;;;;5049913;28;20181;-71
2021/03/05 00:27:43;;;;;;;9.33;6.27;;;;;;;;;;5045408;28;20274;-71
2021/03/05 00:30:09;;;;;;;11.33;6.03;;;;;;;;;;5045263;28;20271;-71
2021/03/05 00:32:34;;;;;;;11.03;6.33;;;;;;;;;;5044953;28;20239;-71
2021/03/05 00:34:59;;;;;;;8.13;6.57;;;;;;;;;;5049727;28;20201;-71
2021/03/05 00:37:25;;;;;;;13.67;7.30;;;;;;;;;;5049887;28;20174;-71
2021/03/05 00:39:50;;;;;;;10.67;6.43;;;;;;;;;;5049699;28;20682;-72
2021/03/05 00:42:15;;;;;;;10.20;6.27;;;;;;;;;;5051009;28;20662;-71
2021/03/05 00:44:40;;;;;;;9.97;6.50;;;;;;;;;;5049948;28;20188;-71
2021/03/05 00:47:05;;;;;;;13.40;6.83;;;;;;;;;;5046756;28;20188;-71
2021/03/05 00:49:31;;;;;;;11.43;6.93;;;;;;;;;;5045372;28;20190;-71
2021/03/05 00:51:56;;;;;;;7.63;5.67;;;;;;;;;;5048544;28;20202;-71
2021/03/05 00:54:21;;;;;;;9.60;7.00;;;;;;;;;;5050995;28;20181;-71
2021/03/05 00:56:46;;;;;;;9.67;6.33;;;;;;;;;;5052411;28;20188;-72
2021/03/05 00:59:11;;;;;;;10.27;5.80;;;;;;;;;;5050491;28;20201;-72
2021/03/05 01:01:37;;;;;;;9.37;7.03;;;;;;;;;;5045743;28;20192;-71
2021/03/05 01:04:02;;;;;;;9.73;5.87;;;;;;;;;;5045561;28;20177;-73
2021/03/05 01:06:27;;;;;;;8.80;6.20;;;;;;;;;;5043783;28;20185;-71
2021/03/05 01:08:52;;;;;;;10.57;6.87;;;;;;;;;;5049659;28;20209;-72
2021/03/05 01:11:18;;;;;;;10.33;6.30;;;;;;;;;;5051660;28;20185;-72
2021/03/05 01:13:43;;;;;;;9.50;6.33;;;;;;;;;;5052932;28;20287;-71
2021/03/05 01:16:08;;;;;;;12.83;7.00;;;;;;;;;;5046353;28;20185;-71
2021/03/05 01:18:33;;;;;;;11.20;6.47;;;;;;;;;;5049628;28;20181;-72
2021/03/05 01:20:58;;;;;;;10.43;6.83;;;;;;;;;;5048067;28;20186;-71
2021/03/05 01:23:25;;;;;;;12.07;6.53;;;;;;;;;;5045629;28;20535;-70
2021/03/05 01:25:50;;;;;;;10.57;6.83;;;;;;;;;;5050037;28;20193;-71
2021/03/05 01:28:15;;;;;;;12.57;7.50;;;;;;;;;;5045855;28;20181;-71
2021/03/05 01:30:41;;;;;;;10.13;6.83;;;;;;;;;;5047704;28;20240;-72
2021/03/05 01:33:06;;;;;;;10.17;7.60;;;;;;;;;;5045325;28;20201;-71
2021/03/05 01:35:31;;;;;;;12.23;7.70;;;;;;;;;;5048310;28;20260;-71
2021/03/05 01:37:56;;;;;;;11.23;7.00;;;;;;;;;;5048732;28;20169;-72
2021/03/05 01:40:38;;;;;;;11.07;7.53;;;;;;;;;;5046327;28;20474;-71
2021/03/05 01:43:07;;;;;;;10.47;6.70;;;;;;;;;;5043890;28;20194;-72
2021/03/05 01:45:32;;;;;;;10.30;7.10;;;;;;;;;;5047631;28;20185;-72
2021/03/05 01:48:04;;;;;;;13.37;7.43;;;;;;;;;;5047999;28;20589;-71
2021/03/05 01:50:32;;;;;;;13.70;6.87;;;;;;;;;;5047202;28;20224;-72
2021/03/05 01:53:03;;;;;;;11.53;7.10;;;;;;;;;;5039792;28;20201;-71
2021/03/05 01:55:28;;;;;;;12.00;7.10;;;;;;;;;;5050080;28;20181;-72
2021/03/05 01:57:54;;;;;;;11.20;6.50;;;;;;;;;;5049851;28;20174;-71
2021/03/05 02:00:21;;;;;;;12.50;7.83;;;;;;;;;;5043902;28;20284;-71
2021/03/05 02:02:46;;;;;;;13.60;7.10;;;;;;;;;;5045909;28;20189;-71
2021/03/05 02:05:12;;;;;;;12.20;7.60;;;;;;;;;;5047257;28;20177;-71
2021/03/05 02:07:37;;;;;;;17.33;8.37;;;;;;;;;;5046387;28;20173;-72
2021/03/05 02:10:04;;;;;;;13.53;7.33;;;;;;;;;;5045361;28;20280;-71
2021/03/05 02:12:29;;;;;;;12.20;7.27;;;;;;;;;;5051105;28;20217;-71
2021/03/05 02:14:55;;;;;;;12.43;7.43;;;;;;;;;;5045277;28;20182;-72
2021/03/05 02:17:20;;;;;;;12.60;7.80;;;;;;;;;;5048514;28;20625;-72
2021/03/05 02:20:00;;;;;;;11.70;7.70;;;;;;;;;;5047306;28;20189;-71
2021/03/05 02:22:46;;;;;;;14.43;7.83;;;;;;;;;;5048825;28;20187;-71
2021/03/05 02:25:30;;;;;;;12.03;8.00;;;;;;;;;;5043136;28;20190;-72
2021/03/05 02:27:58;;;;;;;12.90;7.60;;;;;;;;;;5041178;28;20690;-71
2021/03/05 02:30:29;;;;;;;11.43;7.80;;;;;;;;;;5045020;28;20813;-72
2021/03/05 02:32:59;;;;;;;12.50;7.40;;;;;;;;;;5050244;28;20198;-72
2021/03/05 02:35:26;;;;;;;15.60;7.73;;;;;;;;;;5047874;28;20209;-72
2021/03/05 02:37:52;;;;;;;13.77;8.43;;;;;;;;;;5050086;28;20165;-72
2021/03/05 02:40:21;;;;;;;18.17;9.80;;;;;;;;;;5050189;28;20252;-72
2021/03/05 02:42:50;;;;;;;12.47;8.40;;;;;;;;;;5052913;28;20192;-71
2021/03/05 02:45:20;;;;;;;14.33;8.00;;;;;;;;;;5051345;28;20450;-71
2021/03/05 02:47:48;;;;;;;12.90;7.80;;;;;;;;;;5050484;28;20272;-72
2021/03/05 02:50:15;;;;;;;16.80;9.20;;;;;;;;;;5051980;28;20707;-71
2021/03/05 02:52:42;;;;;;;15.97;8.97;;;;;;;;;;5052529;28;20239;-72
2021/03/05 02:55:07;;;;;;;19.03;8.77;;;;;;;;;;5050517;28;20181;-71
2021/03/05 02:57:34;;;;;;;14.87;7.90;;;;;;;;;;5052554;28;20245;-71
2021/03/05 03:00:00;;;;;;;16.87;8.87;;;;;;;;;;5050322;28;20618;-72
2021/03/05 03:02:26;;;;;;;12.60;7.10;;;;;;;;;;5050016;28;20239;-71
2021/03/05 03:04:53;;;;;;;14.07;7.97;;;;;;;;;;5057597;28;20196;-71
2021/03/05 03:07:19;;;;;;;15.30;7.67;;;;;;;;;;5055627;28;20184;-71
2021/03/05 03:09:44;;;;;;;13.63;7.73;;;;;;;;;;5059591;28;20205;-71
2021/03/05 03:12:10;;;;;;;17.87;8.17;;;;;;;;;;5057994;28;20213;-72
2021/03/05 03:14:39;;;;;;;17.10;7.53;;;;;;;;;;5046617;28;20302;-72
2021/03/05 03:17:05;;;;;;;23.60;7.67;;;;;;;;;;5050741;28;20260;-71
2021/03/05 03:19:30;;;;;;;19.57;6.87;;;;;;;;;;5051169;28;20246;-72
2021/03/05 03:21:56;;;;;;;17.87;6.77;;;;;;;;;;5051593;28;20577;-71
2021/03/05 03:24:21;;;;;;;16.80;7.17;;;;;;;;;;5050897;28;20173;-71
2021/03/05 03:26:46;;;;;;;14.97;6.13;;;;;;;;;;5051415;28;20265;-72
2021/03/05 03:29:12;;;;;;;13.73;6.43;;;;;;;;;;5049887;28;20202;-71
2021/03/05 03:31:38;;;;;;;14.70;5.70;;;;;;;;;;5052631;28;20224;-72
2021/03/05 03:34:05;;;;;;;17.23;6.17;;;;;;;;;;5039831;28;20196;-72
2021/03/05 03:36:34;;;;;;;13.30;5.43;;;;;;;;;;5030238;28;20188;-71
2021/03/05 03:38:59;;;;;;;20.97;5.70;;;;;;;;;;5027006;28;20209;-73
2021/03/05 03:41:24;;;;;;;22.23;6.93;;;;;;;;;;5026079;28;20201;-72
2021/03/05 03:43:49;;;;;;;12.20;4.83;;;;;;;;;;5022482;28;20669;-72
2021/03/05 03:46:15;;;;;;;12.53;5.90;;;;;;;;;;5021950;28;20189;-72
2021/03/05 03:48:49;;;;;;;16.43;5.67;;;;;;;;;;5020330;28;20259;-72
2021/03/05 03:51:16;;;;;;;14.83;5.00;;;;;;;;;;5023820;28;20205;-71
2021/03/05 03:53:43;;;;;;;7.00;4.27;;;;;;;;;;5019404;28;20349;-73
2021/03/05 03:56:09;;;;;;;16.00;4.50;;;;;;;;;;5023143;28;20185;-72
2021/03/05 03:58:34;;;;;;;8.17;4.90;;;;;;;;;;5022442;28;20186;-71
2021/03/05 04:01:02;;;;;;;14.93;4.13;;;;;;;;;;5036478;28;20189;-71
2021/03/05 04:03:29;;;;;;;13.60;5.00;;;;;;;;;;5028499;28;20193;-72
2021/03/05 04:05:55;;;;;;;12.93;4.47;;;;;;;;;;5038624;28;20186;-71
2021/03/05 04:08:20;;;;;;;11.10;3.33;;;;;;;;;;5046388;28;20559;-71
2021/03/05 04:10:46;;;;;;;13.97;4.23;;;;;;;;;;5048139;28;20186;-72
2021/03/05 04:13:13;;;;;;;14.73;5.20;;;;;;;;;;5048481;28;20255;-72
2021/03/05 04:15:38;;;;;;;10.30;3.60;;;;;;;;;;5049395;28;20182;-72
2021/03/05 04:18:04;;;;;;;10.73;3.90;;;;;;;;;;5052275;28;20200;-71
2021/03/05 04:20:29;;;;;;;13.97;4.13;;;;;;;;;;5046346;28;20296;-72
2021/03/05 04:22:55;;;;;;;12.63;3.43;;;;;;;;;;5049623;28;20203;-71
2021/03/05 04:25:20;;;;;;;8.90;2.93;;;;;;;;;;5046031;28;20188;-71
2021/03/05 04:27:45;;;;;;;11.47;3.30;;;;;;;;;;5052053;28;20177;-72
2021/03/05 04:30:11;;;;;;;15.87;3.50;;;;;;;;;;5049417;28;20205;-72
2021/03/05 04:32:39;;;;;;;9.07;2.87;;;;;;;;;;5053652;28;20202;-71
2021/03/05 04:35:04;;;;;;;11.27;3.37;;;;;;;;;;5048689;28;20178;-72
2021/03/05 04:37:29;;;;;;;11.17;4.07;;;;;;;;;;5043181;28;20212;-71
2021/03/05 04:39:55;;;;;;;17.00;4.43;;;;;;;;;;5048128;28;20238;-71
2021/03/05 04:42:20;;;;;;;14.77;3.30;;;;;;;;;;5049939;28;20568;-71
2021/03/05 04:44:46;;;;;;;11.17;4.13;;;;;;;;;;5049927;28;20185;-71
2021/03/05 04:47:11;;;;;;;10.73;2.97;;;;;;;;;;5055744;28;20235;-71
2021/03/05 04:49:36;;;;;;;10.43;4.20;;;;;;;;;;5047174;28;20705;-72
2021/03/05 04:52:01;;;;;;;13.10;3.67;;;;;;;;;;5051946;28;20205;-72
2021/03/05 04:54:26;;;;;;;12.60;3.77;;;;;;;;;;5047467;28;20188;-72
2021/03/05 04:56:52;;;;;;;9.80;3.87;;;;;;;;;;5051095;28;20178;-71
2021/03/05 04:59:17;;;;;;;9.20;3.47;;;;;;;;;;5051464;28;20635;-72
2021/03/05 05:01:42;;;;;;;10.63;3.07;;;;;;;;;;5045571;28;20177;-72
2021/03/05 05:04:07;;;;;;;10.10;3.57;;;;;;;;;;5045161;28;20736;-72
2021/03/05 05:06:32;;;;;;;23.60;4.80;;;;;;;;;;5050715;28;20197;-72
2021/03/05 05:08:57;;;;;;;10.97;3.20;;;;;;;;;;5050285;28;20296;-72
2021/03/05 05:11:23;;;;;;;7.97;3.37;;;;;;;;;;5048457;28;20184;-71
2021/03/05 05:13:48;;;;;;;11.50;3.27;;;;;;;;;;5044212;28;20667;-71
2021/03/05 05:16:13;;;;;;;8.80;4.00;;;;;;;;;;5048173;28;20260;-71
2021/03/05 05:18:38;;;;;;;13.30;4.10;;;;;;;;;;5042548;28;20193;-71
2021/03/05 05:21:03;;;;;;;9.47;3.03;;;;;;;;;;5044293;28;20181;-71
2021/03/05 05:23:29;;;;;;;11.97;2.83;;;;;;;;;;5048377;28;20183;-71
2021/03/05 05:25:54;;;;;;;6.97;2.70;;;;;;;;;;5050424;28;20213;-71
2021/03/05 05:28:19;;;;;;;9.07;3.23;;;;;;;;;;5052111;28;20178;-72
2021/03/05 05:30:44;;;;;;;5.00;2.50;;;;;;;;;;5048254;28;20195;-71
2021/03/05 05:33:09;;;;;;;7.63;2.83;;;;;;;;;;5043548;28;20256;-71
2021/03/05 05:35:34;;;;;;;6.50;3.17;;;;;;;;;;5043957;28;20209;-71
2021/03/05 05:38:00;;;;;;;10.60;3.20;;;;;;;;;;5049099;28;20227;-72
2021/03/05 05:40:26;;;;;;;6.70;2.60;;;;;;;;;;5050322;28;20205;-71
2021/03/05 05:42:51;;;;;;;11.57;3.03;;;;;;;;;;5050629;28;20181;-72
2021/03/05 05:45:16;;;;;;;8.63;2.43;;;;;;;;;;5043243;28;20178;-72
2021/03/05 05:47:42;;;;;;;7.87;3.10;;;;;;;;;;5049094;28;20189;-72
2021/03/05 05:50:08;;;;;;;11.10;3.97;;;;;;;;;;5048275;28;20285;-71
2021/03/05 05:52:34;;;;;;;13.10;3.43;;;;;;;;;;5044256;28;20280;-72
2021/03/05 05:55:00;;;;;;;6.23;3.17;;;;;;;;;;5048507;28;20211;-72
2021/03/05 05:57:26;;;;;;;6.53;2.90;;;;;;;;;;5050251;28;21487;-72
2021/03/05 05:59:52;;;;;;;8.60;3.33;;;;;;;;;;5050277;28;20193;-72
2021/03/05 06:02:18;;;;;;;10.73;2.50;;;;;;;;;;5045943;28;20224;-72
2021/03/05 06:04:44;;;;;;;4.43;2.23;;;;;;;;;;5046602;28;20649;-71
2021/03/05 06:07:09;;;;;;;7.87;2.70;;;;;;;;;;5048727;28;20664;-71
2021/03/05 06:09:34;;;;;;;5.50;2.80;;;;;;;;;;5048828;28;20551;-72
2021/03/05 06:12:10;;;;;;;9.50;2.70;;;;;;;;;;5046582;28;20194;-72
2021/03/05 06:14:35;;;;;;;8.10;2.43;;;;;;;;;;5044450;28;20188;-71
2021/03/05 06:17:01;;;;;;;4.60;2.40;;;;;;;;;;5042643;28;20276;-72
2021/03/05 06:19:27;;;;;;;7.33;2.43;;;;;;;;;;5049636;28;20205;-71
2021/03/05 06:21:53;;;;;;;7.70;2.50;;;;;;;;;;5052725;28;20192;-72
2021/03/05 06:24:18;;;;;;;8.90;2.63;;;;;;;;;;5054546;28;20260;-71
2021/03/05 06:26:46;;;;;;;3.50;2.07;;;;;;;;;;5044554;28;20639;-72
2021/03/05 06:29:12;;;;;;;5.20;2.17;;;;;;;;;;5053527;28;20612;-72
2021/03/05 06:31:37;;;;;;;5.80;2.73;;;;;;;;;;5051116;28;20189;-72
2021/03/05 06:34:03;;;;;;;9.13;3.47;;;;;;;;;;5048277;28;20240;-71
2021/03/05 06:36:28;;;;;;;5.90;2.80;;;;;;;;;;5053526;28;20200;-71
2021/03/05 06:38:54;;;;;;;11.23;2.77;;;;;;;;;;5044322;28;20191;-71
2021/03/05 06:41:23;;;;;;;7.43;2.40;;;;;;;;;;5048080;28;20182;-71
2021/03/05 06:43:50;;;;;;;7.60;3.03;;;;;;;;;;5043313;28;20178;-71
2021/03/05 06:46:43;;;;;;;7.50;2.33;;;;;;;;;;5047089;28;20251;-73
2021/03/05 06:49:12;;;;;;;14.60;4.47;;;;;;;;;;5043811;28;20463;-72
2021/03/05 06:51:41;;;;;;;8.13;2.83;;;;;;;;;;5057934;28;20658;-72
2021/03/05 06:54:08;;;;;;;11.23;2.90;;;;;;;;;;5051208;28;20265;-70
2021/03/05 06:56:34;;;;;;;6.47;2.60;;;;;;;;;;5052094;28;20256;-70
2021/03/05 06:59:10;;;;;;;6.57;3.10;;;;;;;;;;5054238;28;20189;-72
2021/03/05 07:01:53;;;;;;;11.63;4.00;;;;;;;;;;5049093;28;20198;-70
2021/03/05 07:04:18;;;;;;;6.07;2.60;;;;;;;;;;5052397;28;20205;-70
2021/03/05 07:06:43;;;;;;;4.83;2.77;;;;;;;;;;5051547;28;20243;-70
2021/03/05 07:09:10;;;;;;;6.83;3.40;;;;;;;;;;5051940;28;20194;-70
2021/03/05 07:11:39;;;;;;;6.43;2.80;;;;;;;;;;5050782;28;20178;-72
2021/03/05 07:14:09;;;;;;;5.77;2.93;;;;;;;;;;5047576;28;20181;-70
2021/03/05 07:16:40;;;;;;;8.93;3.00;;;;;;;;;;5043897;28;20197;-72
2021/03/05 07:19:05;;;;;;;5.97;2.77;;;;;;;;;;5047980;28;22167;-71
2021/03/05 07:21:33;;;;;;;8.57;3.20;;;;;;;;;;5062987;28;20188;-70
2021/03/05 07:24:01;;;;;;;7.77;2.40;;;;;;;;;;5048765;28;20643;-71
2021/03/05 07:26:26;;;;;;;8.53;3.47;;;;;;;;;;5051875;28;20182;-70
2021/03/05 07:28:52;;;;;;;6.73;3.07;;;;;;;;;;5052843;28;20280;-71
2021/03/05 07:31:19;;;;;;;9.63;3.20;;;;;;;;;;5053776;28;20192;-70
2021/03/05 07:33:49;;;;;;;11.30;3.10;;;;;;;;;;5048899;28;20209;-70
2021/03/05 07:36:15;;;;;;;7.17;2.80;;;;;;;;;;5053308;28;20235;-70
2021/03/05 07:38:43;;;;;;;9.20;3.80;;;;;;;;;;5053339;28;20740;-70
2021/03/05 07:41:09;;;;;;;9.83;2.63;;;;;;;;;;5049659;28;20170;-70
2021/03/05 07:43:34;;;;;;;5.77;2.93;;;;;;;;;;5050056;28;20180;-70
2021/03/05 07:46:00;;;;;;;4.77;2.40;;;;;;;;;;5047503;28;20178;-70
2021/03/05 07:48:25;;;;;;;6.93;2.80;;;;;;;;;;5040754;28;20170;-70
2021/03/05 07:50:50;;;;;;;4.53;2.90;;;;;;;;;;5039327;28;20182;-71
2021/03/05 07:53:16;;;;;;;11.30;2.40;;;;;;;;;;5045507;28;20327;-70
2021/03/05 07:55:41;;;;;;;7.57;2.50;;;;;;;;;;5043417;28;20544;-70
2021/03/05 07:58:07;;;;;;;5.60;2.90;;;;;;;;;;5041404;28;20667;-70
2021/03/05 08:00:50;;;;;;;7.90;2.57;;;;;;;;;;5048766;28;20193;-69
2021/03/05 08:03:17;;;;;;;7.20;2.27;;;;;;;;;;5043728;28;20185;-70
2021/03/05 08:05:44;;;;;;;6.73;2.00;;;;;;;;;;5049785;28;20709;-71
2021/03/05 08:08:30;;;;;;;4.43;1.80;;;;;;;;;;5046338;28;20536;-71
2021/03/05 08:11:05;;;;;;;5.37;2.00;;;;;;;;;;5049557;28;20302;-70
2021/03/05 08:14:01;;;;;;;4.63;2.00;;;;;;;;;;5042725;28;20270;-71
2021/03/05 08:16:27;;;;;;;4.73;2.10;;;;;;;;;;5044594;28;20592;-70
2021/03/05 08:19:14;;;;;;;2.90;1.63;;;;;;;;;;5042376;28;20270;-70
2021/03/05 08:22:02;;;;;;;7.40;2.40;;;;;;;;;;5044256;28;20197;-70
2021/03/05 08:24:28;;;;;;;11.90;2.30;;;;;;;;;;5050071;28;20177;-71
2021/03/05 08:27:03;;;;;;;4.73;2.07;;;;;;;;;;5045935;28;20660;-71
2021/03/05 08:29:47;;;;;;;4.03;1.40;;;;;;;;;;5048868;28;20204;-70
2021/03/05 08:32:31;;;;;;;6.83;1.73;;;;;;;;;;5045814;28;20578;-71
2021/03/05 08:34:56;;;;;;;6.03;1.80;;;;;;;;;;5041639;28;20184;-70
2021/03/05 08:37:32;;;;;;;4.83;1.73;;;;;;;;;;5048197;28;20181;-70
2021/03/05 08:40:12;;;;;;;7.53;2.00;;;;;;;;;;5051706;28;20197;-70
2021/03/05 08:42:41;;;;;;;2.10;1.40;;;;;;;;;;5047817;28;20667;-70
2021/03/05 08:45:19;;;;;;;6.27;1.23;;;;;;;;;;5049607;28;20194;-70
2021/03/05 08:47:46;;;;;;;2.80;1.20;;;;;;;;;;5049259;28;20221;-71
2021/03/05 08:50:12;;;;;;;3.63;1.30;;;;;;;;;;5045002;28;20221;-71
2021/03/05 08:52:44;;;;;;;3.70;1.03;;;;;;;;;;5050746;28;20306;-70
2021/03/05 08:55:09;;;;;;;4.60;1.03;;;;;;;;;;5049775;28;20192;-72
2021/03/05 08:57:45;;;;;;;4.13;0.80;;;;;;;;;;5049802;28;20256;-71
2021/03/05 09:00:14;;;;;;;4.40;1.23;;;;;;;;;;5047833;28;20197;-71
2021/03/05 09:02:40;;;;;;;2.83;0.70;;;;;;;;;;5047495;28;20182;-70
2021/03/05 09:05:05;;;;;;;3.80;1.03;;;;;;;;;;5052340;28;20251;-71
2021/03/05 09:07:30;;;;;;;4.13;1.00;;;;;;;;;;5047619;28;20177;-71
2021/03/05 09:09:56;;;;;;;2.67;0.80;;;;;;;;;;5045767;28;20197;-70
2021/03/05 09:12:22;;;;;;;2.40;1.10;;;;;;;;;;5042644;28;20667;-71
2021/03/05 09:14:56;;;;;;;3.20;1.40;;;;;;;;;;5037244;28;20650;-71
2021/03/05 09:17:21;;;;;;;3.93;1.10;;;;;;;;;;5036270;28;20243;-73
2021/03/05 09:19:47;;;;;;;6.83;1.47;;;;;;;;;;5035907;28;20777;-71
2021/03/05 09:22:22;;;;;;;3.13;0.90;;;;;;;;;;5040024;28;20178;-71
2021/03/05 09:25:06;;;;;;;2.53;0.70;;;;;;;;;;5043948;28;20577;-71
2021/03/05 09:27:35;;;;;;;5.93;0.90;;;;;;;;;;5037951;28;20675;-72
2021/03/05 09:30:20;;;;;;;2.60;0.90;;;;;;;;;;5052076;28;20695;-71
2021/03/05 09:32:52;;;;;;;2.97;1.40;;;;;;;;;;5038764;28;20779;-70
2021/03/05 09:35:27;;;;;;;4.90;1.27;;;;;;;;;;5046262;28;20197;-70
2021/03/05 09:37:53;;;;;;;1.90;0.70;;;;;;;;;;5046263;28;20180;-71
2021/03/05 09:40:18;;;;;;;2.63;0.60;;;;;;;;;;5040212;28;20193;-72
2021/03/05 09:42:45;;;;;;;2.97;0.90;;;;;;;;;;5044041;28;20401;-71
2021/03/05 09:45:11;;;;;;;2.77;0.63;;;;;;;;;;5044994;28;20212;-71
2021/03/05 09:47:49;;;;;;;2.70;1.23;;;;;;;;;;5049276;28;20193;-72
2021/03/05 09:50:18;;;;;;;1.20;0.50;;;;;;;;;;5058712;28;20207;-71
2021/03/05 09:52:43;;;;;;;1.67;0.60;;;;;;;;;;5049716;28;20289;-72
2021/03/05 09:55:08;;;;;;;2.13;0.67;;;;;;;;;;5053730;28;20260;-71
2021/03/05 09:57:38;;;;;;;2.47;0.60;;;;;;;;;;5052937;28;20247;-73
2021/03/05 10:00:03;;;;;;;3.47;0.50;;;;;;;;;;5053972;28;20209;-72
2021/03/05 10:02:35;;;;;;;0.67;0.40;;;;;;;;;;5048434;28;20207;-72
2021/03/05 10:05:00;;;;;;;1.70;0.60;;;;;;;;;;5050523;28;20178;-73
2021/03/05 10:07:25;;;;;;;1.30;0.80;;;;;;;;;;5052832;28;20674;-71
2021/03/05 10:09:51;;;;;;;1.23;0.63;;;;;;;;;;5050895;28;20331;-72
2021/03/05 10:12:25;;;;;;;1.70;0.70;;;;;;;;;;5041749;28;20194;-71
2021/03/05 10:14:50;;;;;;;3.90;0.83;;;;;;;;;;5045610;28;20169;-71
2021/03/05 10:17:17;;;;;;;2.17;0.60;;;;;;;;;;5038634;28;20190;-72
2021/03/05 10:19:43;;;;;;;0.53;0.37;;;;;;;;;;5048891;28;21685;-71
2021/03/05 10:22:08;;;;;;;2.80;1.47;;;;;;;;;;5053218;28;20185;-72
2021/03/05 10:24:34;;;;;;;2.93;0.60;;;;;;;;;;5048842;28;20316;-71
2021/03/05 10:27:16;;;;;;;2.47;0.60;;;;;;;;;;5046203;28;20639;-71
2021/03/05 10:29:43;;;;;;;0.67;0.47;;;;;;;;;;5055253;28;20379;-72
2021/03/05 10:32:27;;;;;;;2.30;0.63;;;;;;;;;;5050590;28;20205;-71
2021/03/05 10:34:54;;;;;;;1.53;0.50;;;;;;;;;;5045132;28;20189;-71
2021/03/05 10:37:19;;;;;;;3.73;0.70;;;;;;;;;;5054671;28;20263;-70
2021/03/05 10:39:45;;;;;;;2.17;0.53;;;;;;;;;;5054488;28;20238;-71
2021/03/05 10:42:12;;;;;;;1.77;0.50;;;;;;;;;;5049752;28;20182;-70
2021/03/05 10:44:37;;;;;;;3.50;0.80;;;;;;;;;;5040196;28;20217;-70
2021/03/05 10:47:04;;;;;;;1.57;0.37;;;;;;;;;;5042152;28;20215;-70
2021/03/05 10:49:29;;;;;;;1.47;0.40;;;;;;;;;;5050098;28;20206;-71
2021/03/05 10:51:55;;;;;;;2.73;0.93;;;;;;;;;;5037988;28;20231;-72
2021/03/05 10:54:20;;;;;;;1.13;0.50;;;;;;;;;;5045600;28;20705;-71
2021/03/05 10:56:49;;;;;;;0.80;0.43;;;;;;;;;;5048066;28;20173;-71
2021/03/05 10:59:16;;;;;;;0.80;0.40;;;;;;;;;;5050149;28;20209;-71
2021/03/05 11:01:42;;;;;;;1.77;0.60;;;;;;;;;;5046327;28;20558;-70
2021/03/05 11:04:07;;;;;;;0.57;0.50;;;;;;;;;;5058105;28;20185;-70
2021/03/05 11:06:32;;;;;;;1.43;0.53;;;;;;;;;;5054286;28;20234;-71
2021/03/05 11:08:59;;;;;;;0.97;0.40;;;;;;;;;;5050003;28;20197;-71
2021/03/05 11:11:25;;;;;;;2.03;0.60;;;;;;;;;;5046293;28;20548;-70
2021/03/05 11:13:50;;;;;;;2.07;0.67;;;;;;;;;;5043359;28;20202;-70
2021/03/05 11:16:15;;;;;;;1.50;0.87;;;;;;;;;;5049256;28;20272;-70
2021/03/05 11:18:40;;;;;;;0.87;0.60;;;;;;;;;;5046434;28;20190;-70
2021/03/05 11:21:05;;;;;;;2.47;0.80;;;;;;;;;;5042514;28;20265;-71
2021/03/05 11:23:30;;;;;;;1.37;0.63;;;;;;;;;;5041676;28;20566;-70
2021/03/05 11:25:56;;;;;;;3.33;0.80;;;;;;;;;;5041475;28;20181;-71
2021/03/05 11:28:21;;;;;;;0.80;0.63;;;;;;;;;;5039407;28;20200;-70
2021/03/05 11:30:46;;;;;;;1.70;0.43;;;;;;;;;;5040604;28;20182;-71
2021/03/05 11:33:11;;;;;;;0.90;0.50;;;;;;;;;;5039524;28;20198;-72
2021/03/05 11:35:37;;;;;;;1.30;0.60;;;;;;;;;;5040037;28;20228;-70
2021/03/05 11:38:03;;;;;;;2.17;0.73;;;;;;;;;;5047866;28;20184;-72
2021/03/05 11:40:28;;;;;;;2.37;0.70;;;;;;;;;;5047765;28;20519;-70
2021/03/05 11:42:53;;;;;;;2.83;0.70;;;;;;;;;;5044854;28;20174;-71
2021/03/05 11:45:18;;;;;;;1.67;0.47;;;;;;;;;;5052363;28;20598;-70
2021/03/05 11:47:44;;;;;;;2.20;0.70;;;;;;;;;;5043186;28;20655;-70
2021/03/05 11:50:10;;;;;;;1.83;0.50;;;;;;;;;;5045422;28;20686;-70
2021/03/05 11:52:36;;;;;;;2.50;1.33;;;;;;;;;;5038599;28;20259;-70
2021/03/05 11:55:01;;;;;;;0.97;0.50;;;;;;;;;;5049517;28;20268;-70
2021/03/05 11:57:26;;;;;;;1.10;0.60;;;;;;;;;;5048308;28;20177;-70
2021/03/05 11:59:51;;;;;;;2.33;0.57;;;;;;;;;;5050756;28;20204;-70
2021/03/05 12:02:16;;;;;;;4.17;1.10;;;;;;;;;;5038813;28;20193;-70
2021/03/05 12:04:42;;;;;;;2.87;0.83;;;;;;;;;;5043968;28;20182;-69
2021/03/05 12:07:07;;;;;;;1.77;0.60;;;;;;;;;;5045810;28;20208;-70
2021/03/05 12:09:32;;;;;;;1.87;0.50;;;;;;;;;;5035737;28;20201;-73
2021/03/05 12:11:57;;;;;;;1.67;0.70;;;;;;;;;;5037047;28;20206;-72
2021/03/05 12:14:23;;;;;;;3.47;1.50;;;;;;;;;;5033999;28;20558;-72
2021/03/05 12:16:48;;;;;;;1.57;0.63;;;;;;;;;;5034235;28;20175;-70
2021/03/05 12:19:13;;;;;;;2.50;1.00;;;;;;;;;;5040462;28;20194;-71
2021/03/05 12:21:38;;;;;;;2.70;0.70;;;;;;;;;;5039933;28;20446;-70
2021/03/05 12:24:03;;;;;;;1.47;0.70;;;;;;;;;;5047956;28;20178;-70
2021/03/05 12:26:29;;;;;;;1.87;0.60;;;;;;;;;;5046366;28;20249;-69
2021/03/05 12:28:54;;;;;;;1.63;0.90;;;;;;;;;;5048586;28;20229;-70
2021/03/05 12:31:19;;;;;;;1.63;0.60;;;;;;;;;;5046373;28;20188;-71
2021/03/05 12:33:44;;;;;;;3.07;0.80;;;;;;;;;;5046030;28;20206;-71
2021/03/05 12:36:10;;;;;;;2.70;0.67;;;;;;;;;;5052831;28;20182;-71
2021/03/05 12:38:35;;;;;;;1.23;0.50;;;;;;;;;;5053298;28;20181;-71
2021/03/05 12:41:01;;;;;;;1.13;0.60;;;;;;;;;;5044700;28;20186;-71
2021/03/05 12:43:26;;;;;;;1.37;0.60;;;;;;;;;;5031906;28;20241;-70
2021/03/05 12:45:51;;;;;;;1.13;0.50;;;;;;;;;;5044548;28;20186;-70
2021/03/05 12:48:16;;;;;;;1.40;0.60;;;;;;;;;;5041430;28;20208;-70
2021/03/05 12:50:42;;;;;;;1.23;0.60;;;;;;;;;;5045614;28;20757;-70
2021/03/05 12:53:07;;;;;;;3.53;1.10;;;;;;;;;;5040821;28;20197;-70
2021/03/05 12:55:32;;;;;;;2.87;0.67;;;;;;;;;;5041048;28;20166;-71
2021/03/05 12:57:57;;;;;;;2.53;0.60;;;;;;;;;;5051976;28;20251;-69
2021/03/05 13:00:23;;;;;;;3.50;0.80;;;;;;;;;;5050289;28;20563;-70
2021/03/05 13:02:48;;;;;;;2.53;0.67;;;;;;;;;;5050319;28;20651;-71
2021/03/05 13:05:13;;;;;;;2.53;0.60;;;;;;;;;;5049502;28;20617;-70
2021/03/05 13:07:39;;;;;;;2.40;0.67;;;;;;;;;;5047603;28;20587;-71
2021/03/05 13:10:04;;;;;;;2.47;1.10;;;;;;;;;;5050306;28;20218;-70
2021/03/05 13:12:29;;;;;;;2.40;0.90;;;;;;;;;;5043930;28;20201;-71
2021/03/05 13:14:54;;;;;;;3.97;1.20;;;;;;;;;;5046274;28;20170;-70
2021/03/05 13:17:20;;;;;;;2.87;1.20;;;;;;;;;;5035307;28;20236;-71
2021/03/05 13:19:45;;;;;;;1.40;0.57;;;;;;;;;;5047966;28;20448;-70
2021/03/05 13:22:10;;;;;;;2.23;0.73;;;;;;;;;;5052142;28;20386;-70
2021/03/05 13:24:36;;;;;;;2.47;1.00;;;;;;;;;;5050767;28;20288;-71
2021/03/05 13:27:01;;;;;;;1.73;0.70;;;;;;;;;;5046029;28;20186;-71
2021/03/05 13:29:26;;;;;;;0.93;0.50;;;;;;;;;;5048732;28;20308;-71
2021/03/05 13:31:51;;;;;;;3.37;0.90;;;;;;;;;;5046700;28;20197;-70
2021/03/05 13:34:17;;;;;;;2.43;0.83;;;;;;;;;;5048967;28;20620;-70
2021/03/05 13:36:43;;;;;;;2.40;0.80;;;;;;;;;;5039361;28;20177;-71
2021/03/05 13:39:08;;;;;;;2.10;0.93;;;;;;;;;;5040877;28;20811;-71
2021/03/05 13:41:33;;;;;;;2.97;1.10;;;;;;;;;;5032178;28;20261;-70
2021/03/05 13:43:59;;;;;;;2.97;0.83;;;;;;;;;;5050278;28;20196;-70
2021/03/05 13:46:24;;;;;;;2.93;0.80;;;;;;;;;;5045125;28;20225;-72
2021/03/05 13:48:49;;;;;;;3.27;0.80;;;;;;;;;;5033161;28;20251;-71
2021/03/05 13:51:14;;;;;;;6.87;0.80;;;;;;;;;;5033736;28;20182;-71
2021/03/05 13:53:39;;;;;;;2.77;0.90;;;;;;;;;;5041016;28;20286;-70
2021/03/05 13:56:05;;;;;;;3.00;0.77;;;;;;;;;;5052720;28;20569;-70
2021/03/05 13:58:30;;;;;;;4.03;0.73;;;;;;;;;;5043689;28;20227;-71
2021/03/05 14:00:56;;;;;;;3.80;0.70;;;;;;;;;;5044527;28;20201;-70
2021/03/05 14:03:21;;;;;;;5.27;1.00;;;;;;;;;;5049439;28;20254;-70
2021/03/05 14:05:46;;;;;;;4.97;1.77;;;;;;;;;;5047124;28;20261;-70
2021/03/05 14:08:11;;;;;;;3.27;0.77;;;;;;;;;;5041964;28;20194;-70
2021/03/05 14:10:37;;;;;;;2.27;0.70;;;;;;;;;;5043783;28;20198;-71
2021/03/05 14:13:02;;;;;;;1.77;0.90;;;;;;;;;;5037540;28;20222;-71
2021/03/05 14:15:27;;;;;;;4.43;1.00;;;;;;;;;;5035342;28;20174;-71
2021/03/05 14:17:52;;;;;;;4.17;1.00;;;;;;;;;;5046170;28;20185;-70
2021/03/05 14:20:18;;;;;;;4.90;0.83;;;;;;;;;;5045711;28;20609;-71
2021/03/05 14:22:43;;;;;;;2.03;0.80;;;;;;;;;;5043072;28;20181;-70
2021/03/05 14:25:09;;;;;;;4.33;0.80;;;;;;;;;;5040168;28;20181;-71
2021/03/05 14:27:34;;;;;;;9.53;2.03;;;;;;;;;;5045129;28;20201;-71
2021/03/05 14:30:00;;;;;;;2.77;0.97;;;;;;;;;;5041225;28;20243;-70
2021/03/05 14:32:25;;;;;;;1.73;0.60;;;;;;;;;;5039973;28;20266;-70
2021/03/05 14:34:51;;;;;;;2.47;1.00;;;;;;;;;;5038063;28;20241;-71
2021/03/05 14:37:17;;;;;;;4.00;1.00;;;;;;;;;;5041326;28;20185;-71